sensor_id;sensor_type;location;lat;lon;timestamp;P1;durP1;ratioP1;P2;durP2;ratioP2
45392;SDS011;31129;44.810;10.334;2023-04-19T00:01:48;5.10;;;3.55;;
45392;SDS011;31129;44.810;10.334;2023-04-19T00:04:14;3.95;;;3.05;;
45392;SDS011;31129;44.810;10.334;2023-04-19T00:06:39;12.77;;;3.63;;
45392;SDS011;31129;44.810;10.334;2023-04-19T00:09:06;6.22;;;3.80;;
45392;SDS011;31129;44.810;10.334;2023-04-19T00:11:32;6.30;;;3.47;;
45392;SDS011;31129;44.810;10.334;2023-04-19T00:13:58;4.13;;;3.70;;
45392;SDS011;31129;44.810;10.334;2023-04-19T00:16:23;5.15;;;3.38;;
45392;SDS011;31129;44.810;10.334;2023-04-19T00:18:48;8.43;;;3.55;;
45392;SDS011;31129;44.810;10.334;2023-04-19T00:21:14;4.03;;;3.28;;
45392;SDS011;31129;44.810;10.334;2023-04-19T00:23:40;6.07;;;3.60;;
45392;SDS011;31129;44.810;10.334;2023-04-19T00:26:09;5.30;;;3.22;;
45392;SDS011;31129;44.810;10.334;2023-04-19T00:28:36;3.42;;;3.13;;
45392;SDS011;31129;44.810;10.334;2023-04-19T00:31:01;3.92;;;3.45;;
45392;SDS011;31129;44.810;10.334;2023-04-19T00:33:27;7.80;;;3.30;;
45392;SDS011;31129;44.810;10.334;2023-04-19T00:35:55;3.97;;;3.58;;
45392;SDS011;31129;44.810;10.334;2023-04-19T00:38:21;5.03;;;3.78;;
45392;SDS011;31129;44.810;10.334;2023-04-19T00:40:46;4.05;;;3.63;;
45392;SDS011;31129;44.810;10.334;2023-04-19T00:43:15;4.88;;;3.50;;
45392;SDS011;31129;44.810;10.334;2023-04-19T00:45:42;5.00;;;3.70;;
45392;SDS011;31129;44.810;10.334;2023-04-19T00:48:08;4.15;;;3.75;;
45392;SDS011;31129;44.810;10.334;2023-04-19T00:50:34;4.28;;;3.40;;
45392;SDS011;31129;44.810;10.334;2023-04-19T00:53:00;4.03;;;3.42;;
45392;SDS011;31129;44.810;10.334;2023-04-19T00:55:26;5.70;;;3.58;;
45392;SDS011;31129;44.810;10.334;2023-04-19T00:57:52;4.30;;;3.15;;
45392;SDS011;31129;44.810;10.334;2023-04-19T01:00:18;3.92;;;3.50;;
45392;SDS011;31129;44.810;10.334;2023-04-19T01:02:44;3.97;;;3.30;;
45392;SDS011;31129;44.810;10.334;2023-04-19T01:05:10;5.50;;;3.33;;
45392;SDS011;31129;44.810;10.334;2023-04-19T01:07:35;6.07;;;3.20;;
45392;SDS011;31129;44.810;10.334;2023-04-19T01:10:01;4.38;;;3.53;;
45392;SDS011;31129;44.810;10.334;2023-04-19T01:12:26;4.03;;;3.53;;
45392;SDS011;31129;44.810;10.334;2023-04-19T01:14:52;5.25;;;3.53;;
45392;SDS011;31129;44.810;10.334;2023-04-19T01:17:20;4.28;;;3.33;;
45392;SDS011;31129;44.810;10.334;2023-04-19T01:19:46;5.82;;;3.85;;
45392;SDS011;31129;44.810;10.334;2023-04-19T01:22:15;3.63;;;3.33;;
45392;SDS011;31129;44.810;10.334;2023-04-19T01:24:43;6.70;;;3.72;;
45392;SDS011;31129;44.810;10.334;2023-04-19T01:27:08;7.55;;;3.78;;
45392;SDS011;31129;44.810;10.334;2023-04-19T01:29:34;4.90;;;3.83;;
45392;SDS011;31129;44.810;10.334;2023-04-19T01:31:59;4.30;;;3.60;;
45392;SDS011;31129;44.810;10.334;2023-04-19T01:34:25;5.57;;;4.10;;
45392;SDS011;31129;44.810;10.334;2023-04-19T01:36:51;5.80;;;3.95;;
45392;SDS011;31129;44.810;10.334;2023-04-19T01:39:16;7.00;;;3.70;;
45392;SDS011;31129;44.810;10.334;2023-04-19T01:41:42;8.55;;;3.60;;
45392;SDS011;31129;44.810;10.334;2023-04-19T01:44:08;4.90;;;3.38;;
45392;SDS011;31129;44.810;10.334;2023-04-19T01:46:33;4.57;;;3.53;;
45392;SDS011;31129;44.810;10.334;2023-04-19T01:49:00;4.72;;;3.63;;
45392;SDS011;31129;44.810;10.334;2023-04-19T01:51:26;5.88;;;4.00;;
45392;SDS011;31129;44.810;10.334;2023-04-19T01:53:52;5.60;;;3.30;;
45392;SDS011;31129;44.810;10.334;2023-04-19T01:56:19;4.13;;;3.60;;
45392;SDS011;31129;44.810;10.334;2023-04-19T01:58:45;7.03;;;3.85;;
45392;SDS011;31129;44.810;10.334;2023-04-19T02:01:11;4.70;;;3.33;;
45392;SDS011;31129;44.810;10.334;2023-04-19T02:03:37;5.28;;;4.30;;
45392;SDS011;31129;44.810;10.334;2023-04-19T02:06:03;5.55;;;3.30;;
45392;SDS011;31129;44.810;10.334;2023-04-19T02:08:29;6.03;;;4.10;;
45392;SDS011;31129;44.810;10.334;2023-04-19T02:10:55;5.85;;;4.40;;
45392;SDS011;31129;44.810;10.334;2023-04-19T02:13:20;5.15;;;3.97;;
45392;SDS011;31129;44.810;10.334;2023-04-19T02:15:46;5.65;;;4.60;;
45392;SDS011;31129;44.810;10.334;2023-04-19T02:18:11;11.40;;;4.40;;
45392;SDS011;31129;44.810;10.334;2023-04-19T02:20:38;6.63;;;4.72;;
45392;SDS011;31129;44.810;10.334;2023-04-19T02:23:04;5.50;;;4.10;;
45392;SDS011;31129;44.810;10.334;2023-04-19T02:25:29;6.43;;;4.80;;
45392;SDS011;31129;44.810;10.334;2023-04-19T02:27:55;7.63;;;5.18;;
45392;SDS011;31129;44.810;10.334;2023-04-19T02:30:20;5.85;;;4.07;;
45392;SDS011;31129;44.810;10.334;2023-04-19T02:32:49;6.85;;;4.57;;
45392;SDS011;31129;44.810;10.334;2023-04-19T02:35:15;5.63;;;4.88;;
45392;SDS011;31129;44.810;10.334;2023-04-19T02:37:41;7.90;;;5.68;;
45392;SDS011;31129;44.810;10.334;2023-04-19T02:40:06;7.30;;;5.00;;
45392;SDS011;31129;44.810;10.334;2023-04-19T02:42:33;7.70;;;5.25;;
45392;SDS011;31129;44.810;10.334;2023-04-19T02:44:58;6.93;;;5.43;;
45392;SDS011;31129;44.810;10.334;2023-04-19T02:47:24;9.18;;;5.65;;
45392;SDS011;31129;44.810;10.334;2023-04-19T02:49:49;7.25;;;5.07;;
45392;SDS011;31129;44.810;10.334;2023-04-19T02:52:15;8.02;;;6.35;;
45392;SDS011;31129;44.810;10.334;2023-04-19T02:54:41;7.45;;;6.25;;
45392;SDS011;31129;44.810;10.334;2023-04-19T02:57:06;14.35;;;6.78;;
45392;SDS011;31129;44.810;10.334;2023-04-19T02:59:32;9.07;;;6.88;;
45392;SDS011;31129;44.810;10.334;2023-04-19T03:01:59;9.20;;;7.07;;
45392;SDS011;31129;44.810;10.334;2023-04-19T03:04:25;15.63;;;8.00;;
45392;SDS011;31129;44.810;10.334;2023-04-19T03:06:51;7.78;;;6.55;;
45392;SDS011;31129;44.810;10.334;2023-04-19T03:09:16;9.77;;;6.35;;
45392;SDS011;31129;44.810;10.334;2023-04-19T03:11:42;8.90;;;6.75;;
45392;SDS011;31129;44.810;10.334;2023-04-19T03:14:07;7.97;;;6.07;;
45392;SDS011;31129;44.810;10.334;2023-04-19T03:16:33;8.00;;;6.75;;
45392;SDS011;31129;44.810;10.334;2023-04-19T03:18:58;14.23;;;6.53;;
45392;SDS011;31129;44.810;10.334;2023-04-19T03:21:28;8.27;;;6.40;;
45392;SDS011;31129;44.810;10.334;2023-04-19T03:23:54;8.90;;;5.80;;
45392;SDS011;31129;44.810;10.334;2023-04-19T03:26:20;9.18;;;6.50;;
45392;SDS011;31129;44.810;10.334;2023-04-19T03:28:49;11.32;;;6.10;;
45392;SDS011;31129;44.810;10.334;2023-04-19T03:34:03;7.50;;;5.82;;
45392;SDS011;31129;44.810;10.334;2023-04-19T03:36:35;10.82;;;5.78;;
45392;SDS011;31129;44.810;10.334;2023-04-19T03:39:01;13.43;;;7.05;;
45392;SDS011;31129;44.810;10.334;2023-04-19T03:41:28;9.88;;;6.80;;
45392;SDS011;31129;44.810;10.334;2023-04-19T03:44:09;8.27;;;6.57;;
45392;SDS011;31129;44.810;10.334;2023-04-19T03:46:36;8.23;;;6.63;;
45392;SDS011;31129;44.810;10.334;2023-04-19T03:49:02;11.85;;;7.35;;
45392;SDS011;31129;44.810;10.334;2023-04-19T03:51:28;9.48;;;6.70;;
45392;SDS011;31129;44.810;10.334;2023-04-19T03:53:54;8.63;;;6.72;;
45392;SDS011;31129;44.810;10.334;2023-04-19T03:56:19;9.13;;;6.97;;
45392;SDS011;31129;44.810;10.334;2023-04-19T03:58:46;9.90;;;7.78;;
45392;SDS011;31129;44.810;10.334;2023-04-19T04:01:18;11.75;;;6.85;;
45392;SDS011;31129;44.810;10.334;2023-04-19T04:03:44;10.63;;;6.47;;
45392;SDS011;31129;44.810;10.334;2023-04-19T04:06:09;9.27;;;7.78;;
45392;SDS011;31129;44.810;10.334;2023-04-19T04:08:35;7.85;;;6.47;;
45392;SDS011;31129;44.810;10.334;2023-04-19T04:11:01;10.18;;;7.32;;
45392;SDS011;31129;44.810;10.334;2023-04-19T04:13:27;13.15;;;7.65;;
45392;SDS011;31129;44.810;10.334;2023-04-19T04:16:12;11.68;;;7.25;;
45392;SDS011;31129;44.810;10.334;2023-04-19T04:18:38;10.52;;;7.20;;
45392;SDS011;31129;44.810;10.334;2023-04-19T04:21:08;18.10;;;7.70;;
45392;SDS011;31129;44.810;10.334;2023-04-19T04:23:36;9.43;;;7.40;;
45392;SDS011;31129;44.810;10.334;2023-04-19T04:26:06;18.80;;;7.25;;
45392;SDS011;31129;44.810;10.334;2023-04-19T04:28:56;13.90;;;7.20;;
45392;SDS011;31129;44.810;10.334;2023-04-19T04:31:23;12.38;;;7.57;;
45392;SDS011;31129;44.810;10.334;2023-04-19T04:33:48;12.38;;;7.22;;
45392;SDS011;31129;44.810;10.334;2023-04-19T04:36:17;13.50;;;7.38;;
45392;SDS011;31129;44.810;10.334;2023-04-19T04:38:44;11.38;;;7.50;;
45392;SDS011;31129;44.810;10.334;2023-04-19T04:41:09;16.10;;;8.27;;
45392;SDS011;31129;44.810;10.334;2023-04-19T04:43:36;10.85;;;7.70;;
45392;SDS011;31129;44.810;10.334;2023-04-19T04:46:02;12.90;;;7.55;;
45392;SDS011;31129;44.810;10.334;2023-04-19T04:48:33;18.05;;;7.93;;
45392;SDS011;31129;44.810;10.334;2023-04-19T04:50:58;12.38;;;7.55;;
45392;SDS011;31129;44.810;10.334;2023-04-19T04:53:25;12.38;;;7.85;;
45392;SDS011;31129;44.810;10.334;2023-04-19T04:55:51;13.82;;;8.13;;
45392;SDS011;31129;44.810;10.334;2023-04-19T04:58:18;18.15;;;7.90;;
45392;SDS011;31129;44.810;10.334;2023-04-19T05:00:53;13.85;;;6.47;;
45392;SDS011;31129;44.810;10.334;2023-04-19T05:03:19;7.90;;;3.83;;
45392;SDS011;31129;44.810;10.334;2023-04-19T05:05:51;8.55;;;4.40;;
45392;SDS011;31129;44.810;10.334;2023-04-19T05:08:17;9.32;;;4.22;;
45392;SDS011;31129;44.810;10.334;2023-04-19T05:10:43;9.65;;;4.60;;
45392;SDS011;31129;44.810;10.334;2023-04-19T05:13:10;13.25;;;5.55;;
45392;SDS011;31129;44.810;10.334;2023-04-19T05:15:37;13.95;;;6.22;;
45392;SDS011;31129;44.810;10.334;2023-04-19T05:18:04;9.75;;;6.20;;
45392;SDS011;31129;44.810;10.334;2023-04-19T05:20:30;10.07;;;6.20;;
45392;SDS011;31129;44.810;10.334;2023-04-19T05:23:03;10.43;;;8.15;;
45392;SDS011;31129;44.810;10.334;2023-04-19T05:25:31;10.23;;;7.15;;
45392;SDS011;31129;44.810;10.334;2023-04-19T05:27:57;9.00;;;4.82;;
45392;SDS011;31129;44.810;10.334;2023-04-19T05:30:24;14.70;;;5.53;;
45392;SDS011;31129;44.810;10.334;2023-04-19T05:32:49;11.65;;;4.97;;
45392;SDS011;31129;44.810;10.334;2023-04-19T05:35:16;14.38;;;6.38;;
45392;SDS011;31129;44.810;10.334;2023-04-19T05:37:42;12.80;;;6.40;;
45392;SDS011;31129;44.810;10.334;2023-04-19T05:40:08;14.40;;;6.95;;
45392;SDS011;31129;44.810;10.334;2023-04-19T05:42:34;16.13;;;7.65;;
45392;SDS011;31129;44.810;10.334;2023-04-19T05:45:00;20.98;;;8.63;;
45392;SDS011;31129;44.810;10.334;2023-04-19T05:47:26;14.05;;;8.50;;
45392;SDS011;31129;44.810;10.334;2023-04-19T05:50:15;17.10;;;9.48;;
45392;SDS011;31129;44.810;10.334;2023-04-19T05:52:46;16.98;;;7.55;;
45392;SDS011;31129;44.810;10.334;2023-04-19T05:55:12;12.52;;;7.72;;
45392;SDS011;31129;44.810;10.334;2023-04-19T05:57:41;13.23;;;7.65;;
45392;SDS011;31129;44.810;10.334;2023-04-19T06:00:07;16.60;;;7.60;;
45392;SDS011;31129;44.810;10.334;2023-04-19T06:02:43;13.95;;;7.25;;
45392;SDS011;31129;44.810;10.334;2023-04-19T06:05:11;10.93;;;6.90;;
45392;SDS011;31129;44.810;10.334;2023-04-19T06:07:37;7.82;;;5.88;;
45392;SDS011;31129;44.810;10.334;2023-04-19T06:10:03;9.60;;;5.85;;
45392;SDS011;31129;44.810;10.334;2023-04-19T06:12:29;12.82;;;6.20;;
45392;SDS011;31129;44.810;10.334;2023-04-19T06:14:54;13.85;;;5.70;;
45392;SDS011;31129;44.810;10.334;2023-04-19T06:17:21;11.65;;;5.68;;
45392;SDS011;31129;44.810;10.334;2023-04-19T06:19:49;8.15;;;5.82;;
45392;SDS011;31129;44.810;10.334;2023-04-19T06:22:18;13.93;;;6.00;;
45392;SDS011;31129;44.810;10.334;2023-04-19T06:24:44;12.55;;;5.65;;
45392;SDS011;31129;44.810;10.334;2023-04-19T06:27:14;7.75;;;4.95;;
45392;SDS011;31129;44.810;10.334;2023-04-19T06:29:40;8.10;;;4.78;;
45392;SDS011;31129;44.810;10.334;2023-04-19T06:32:06;7.13;;;4.60;;
45392;SDS011;31129;44.810;10.334;2023-04-19T06:34:33;9.63;;;4.50;;
45392;SDS011;31129;44.810;10.334;2023-04-19T06:36:58;7.93;;;4.88;;
45392;SDS011;31129;44.810;10.334;2023-04-19T06:39:24;12.35;;;4.82;;
45392;SDS011;31129;44.810;10.334;2023-04-19T06:41:49;9.15;;;4.72;;
45392;SDS011;31129;44.810;10.334;2023-04-19T06:44:15;7.55;;;4.00;;
45392;SDS011;31129;44.810;10.334;2023-04-19T06:46:41;8.32;;;3.65;;
45392;SDS011;31129;44.810;10.334;2023-04-19T06:49:06;7.90;;;3.80;;
45392;SDS011;31129;44.810;10.334;2023-04-19T06:51:32;9.85;;;3.60;;
45392;SDS011;31129;44.810;10.334;2023-04-19T06:53:58;8.55;;;3.17;;
45392;SDS011;31129;44.810;10.334;2023-04-19T06:56:45;8.38;;;3.70;;
45392;SDS011;31129;44.810;10.334;2023-04-19T06:59:11;12.35;;;3.50;;
45392;SDS011;31129;44.810;10.334;2023-04-19T07:01:38;8.55;;;3.28;;
45392;SDS011;31129;44.810;10.334;2023-04-19T07:04:05;8.07;;;4.18;;
45392;SDS011;31129;44.810;10.334;2023-04-19T07:06:31;8.73;;;3.00;;
45392;SDS011;31129;44.810;10.334;2023-04-19T07:08:57;6.40;;;3.03;;
45392;SDS011;31129;44.810;10.334;2023-04-19T07:11:23;7.32;;;3.13;;
45392;SDS011;31129;44.810;10.334;2023-04-19T07:13:49;6.45;;;3.08;;
45392;SDS011;31129;44.810;10.334;2023-04-19T07:16:15;6.68;;;3.35;;
45392;SDS011;31129;44.810;10.334;2023-04-19T07:18:41;9.13;;;3.35;;
45392;SDS011;31129;44.810;10.334;2023-04-19T07:21:09;8.13;;;3.95;;
45392;SDS011;31129;44.810;10.334;2023-04-19T07:26:00;9.98;;;3.58;;
45392;SDS011;31129;44.810;10.334;2023-04-19T07:28:27;10.93;;;4.00;;
45392;SDS011;31129;44.810;10.334;2023-04-19T07:30:53;7.10;;;4.10;;
45392;SDS011;31129;44.810;10.334;2023-04-19T07:33:18;6.03;;;3.83;;
45392;SDS011;31129;44.810;10.334;2023-04-19T07:35:44;5.03;;;3.50;;
45392;SDS011;31129;44.810;10.334;2023-04-19T07:38:10;7.20;;;3.85;;
45392;SDS011;31129;44.810;10.334;2023-04-19T07:40:35;5.05;;;3.58;;
45392;SDS011;31129;44.810;10.334;2023-04-19T07:43:00;7.78;;;3.70;;
45392;SDS011;31129;44.810;10.334;2023-04-19T07:45:26;9.82;;;3.80;;
45392;SDS011;31129;44.810;10.334;2023-04-19T07:47:51;4.70;;;3.38;;
45392;SDS011;31129;44.810;10.334;2023-04-19T07:50:21;4.93;;;2.90;;
45392;SDS011;31129;44.810;10.334;2023-04-19T07:52:49;4.93;;;3.20;;
45392;SDS011;31129;44.810;10.334;2023-04-19T07:55:23;7.00;;;3.30;;
45392;SDS011;31129;44.810;10.334;2023-04-19T07:57:48;7.47;;;3.78;;
45392;SDS011;31129;44.810;10.334;2023-04-19T08:00:14;5.35;;;4.07;;
45392;SDS011;31129;44.810;10.334;2023-04-19T08:02:52;6.45;;;4.15;;
45392;SDS011;31129;44.810;10.334;2023-04-19T08:05:18;7.47;;;3.95;;
45392;SDS011;31129;44.810;10.334;2023-04-19T08:07:44;5.50;;;3.58;;
45392;SDS011;31129;44.810;10.334;2023-04-19T08:10:10;8.85;;;3.42;;
45392;SDS011;31129;44.810;10.334;2023-04-19T08:12:39;10.77;;;3.38;;
45392;SDS011;31129;44.810;10.334;2023-04-19T08:15:05;5.63;;;3.28;;
45392;SDS011;31129;44.810;10.334;2023-04-19T08:17:35;5.32;;;3.58;;
45392;SDS011;31129;44.810;10.334;2023-04-19T08:20:01;3.78;;;2.80;;
45392;SDS011;31129;44.810;10.334;2023-04-19T08:22:27;6.07;;;3.15;;
45392;SDS011;31129;44.810;10.334;2023-04-19T08:24:53;6.07;;;2.80;;
45392;SDS011;31129;44.810;10.334;2023-04-19T08:27:20;3.17;;;2.70;;
45392;SDS011;31129;44.810;10.334;2023-04-19T08:29:46;6.72;;;2.67;;
45392;SDS011;31129;44.810;10.334;2023-04-19T08:32:11;3.92;;;2.95;;
45392;SDS011;31129;44.810;10.334;2023-04-19T08:34:38;5.90;;;3.38;;
45392;SDS011;31129;44.810;10.334;2023-04-19T08:37:04;7.18;;;2.83;;
45392;SDS011;31129;44.810;10.334;2023-04-19T08:39:33;3.95;;;3.10;;
45392;SDS011;31129;44.810;10.334;2023-04-19T08:42:02;3.35;;;2.95;;
45392;SDS011;31129;44.810;10.334;2023-04-19T08:44:30;6.70;;;4.10;;
45392;SDS011;31129;44.810;10.334;2023-04-19T08:46:57;5.85;;;3.03;;
45392;SDS011;31129;44.810;10.334;2023-04-19T08:49:24;2.65;;;2.45;;
45392;SDS011;31129;44.810;10.334;2023-04-19T08:51:50;3.45;;;2.53;;
45392;SDS011;31129;44.810;10.334;2023-04-19T08:54:16;6.80;;;3.20;;
45392;SDS011;31129;44.810;10.334;2023-04-19T08:56:47;5.25;;;2.28;;
45392;SDS011;31129;44.810;10.334;2023-04-19T08:59:13;2.65;;;2.28;;
45392;SDS011;31129;44.810;10.334;2023-04-19T09:01:39;4.88;;;2.78;;
45392;SDS011;31129;44.810;10.334;2023-04-19T09:04:05;5.72;;;3.00;;
45392;SDS011;31129;44.810;10.334;2023-04-19T09:06:38;3.22;;;2.38;;
45392;SDS011;31129;44.810;10.334;2023-04-19T09:09:14;2.90;;;2.60;;
45392;SDS011;31129;44.810;10.334;2023-04-19T09:11:53;5.35;;;3.05;;
45392;SDS011;31129;44.810;10.334;2023-04-19T09:14:20;4.20;;;2.92;;
45392;SDS011;31129;44.810;10.334;2023-04-19T09:16:46;4.20;;;2.60;;
45392;SDS011;31129;44.810;10.334;2023-04-19T09:19:12;4.53;;;2.53;;
45392;SDS011;31129;44.810;10.334;2023-04-19T09:21:38;4.13;;;2.67;;
45392;SDS011;31129;44.810;10.334;2023-04-19T09:24:04;4.57;;;2.42;;
45392;SDS011;31129;44.810;10.334;2023-04-19T09:26:31;3.28;;;2.67;;
45392;SDS011;31129;44.810;10.334;2023-04-19T09:29:00;3.28;;;2.67;;
45392;SDS011;31129;44.810;10.334;2023-04-19T09:31:29;3.08;;;2.00;;
45392;SDS011;31129;44.810;10.334;2023-04-19T09:33:55;3.28;;;2.60;;
45392;SDS011;31129;44.810;10.334;2023-04-19T09:36:31;2.65;;;2.00;;
45392;SDS011;31129;44.810;10.334;2023-04-19T09:38:58;3.35;;;2.00;;
45392;SDS011;31129;44.810;10.334;2023-04-19T09:41:24;4.18;;;2.13;;
45392;SDS011;31129;44.810;10.334;2023-04-19T09:43:51;6.32;;;3.58;;
45392;SDS011;31129;44.810;10.334;2023-04-19T09:46:35;8.40;;;3.20;;
45392;SDS011;31129;44.810;10.334;2023-04-19T09:49:23;6.50;;;3.03;;
45392;SDS011;31129;44.810;10.334;2023-04-19T09:51:48;6.72;;;2.83;;
45392;SDS011;31129;44.810;10.334;2023-04-19T09:54:17;3.15;;;2.22;;
45392;SDS011;31129;44.810;10.334;2023-04-19T09:56:45;4.60;;;2.40;;
45392;SDS011;31129;44.810;10.334;2023-04-19T09:59:11;4.90;;;2.33;;
45392;SDS011;31129;44.810;10.334;2023-04-19T10:01:38;3.92;;;1.85;;
45392;SDS011;31129;44.810;10.334;2023-04-19T10:04:10;2.55;;;2.17;;
45392;SDS011;31129;44.810;10.334;2023-04-19T10:06:48;3.60;;;2.38;;
45392;SDS011;31129;44.810;10.334;2023-04-19T10:09:16;2.30;;;2.10;;
45392;SDS011;31129;44.810;10.334;2023-04-19T10:11:46;3.45;;;2.47;;
45392;SDS011;31129;44.810;10.334;2023-04-19T10:14:14;5.25;;;2.83;;
45392;SDS011;31129;44.810;10.334;2023-04-19T10:16:40;2.70;;;2.47;;
45392;SDS011;31129;44.810;10.334;2023-04-19T10:19:14;3.58;;;2.40;;
45392;SDS011;31129;44.810;10.334;2023-04-19T10:21:49;2.65;;;2.25;;
45392;SDS011;31129;44.810;10.334;2023-04-19T10:24:15;2.80;;;2.50;;
45392;SDS011;31129;44.810;10.334;2023-04-19T10:32:20;4.60;;;2.53;;
45392;SDS011;31129;44.810;10.334;2023-04-19T10:34:46;5.30;;;3.08;;
45392;SDS011;31129;44.810;10.334;2023-04-19T10:37:15;4.95;;;3.47;;
45392;SDS011;31129;44.810;10.334;2023-04-19T10:39:41;4.82;;;3.28;;
45392;SDS011;31129;44.810;10.334;2023-04-19T10:42:08;3.22;;;2.90;;
45392;SDS011;31129;44.810;10.334;2023-04-19T10:44:34;3.08;;;2.75;;
45392;SDS011;31129;44.810;10.334;2023-04-19T10:46:59;4.32;;;3.25;;
45392;SDS011;31129;44.810;10.334;2023-04-19T10:49:26;4.35;;;2.65;;
45392;SDS011;31129;44.810;10.334;2023-04-19T10:51:53;5.18;;;3.38;;
45392;SDS011;31129;44.810;10.334;2023-04-19T10:54:31;3.47;;;3.17;;
45392;SDS011;31129;44.810;10.334;2023-04-19T10:56:59;3.53;;;2.70;;
45392;SDS011;31129;44.810;10.334;2023-04-19T10:59:35;6.07;;;3.00;;
45392;SDS011;31129;44.810;10.334;2023-04-19T11:02:03;3.05;;;2.63;;
45392;SDS011;31129;44.810;10.334;2023-04-19T11:06:56;4.05;;;3.45;;
45392;SDS011;31129;44.810;10.334;2023-04-19T11:09:23;4.60;;;3.35;;
45392;SDS011;31129;44.810;10.334;2023-04-19T11:11:56;6.10;;;3.70;;
45392;SDS011;31129;44.810;10.334;2023-04-19T11:14:31;8.98;;;3.95;;
45392;SDS011;31129;44.810;10.334;2023-04-19T11:17:02;4.75;;;3.53;;
45392;SDS011;31129;44.810;10.334;2023-04-19T11:19:37;4.18;;;3.60;;
45392;SDS011;31129;44.810;10.334;2023-04-19T11:22:03;5.95;;;4.03;;
45392;SDS011;31129;44.810;10.334;2023-04-19T11:24:28;3.58;;;3.17;;
45392;SDS011;31129;44.810;10.334;2023-04-19T11:26:54;4.10;;;3.60;;
45392;SDS011;31129;44.810;10.334;2023-04-19T11:29:21;4.03;;;3.58;;
45392;SDS011;31129;44.810;10.334;2023-04-19T11:31:47;4.93;;;3.70;;
45392;SDS011;31129;44.810;10.334;2023-04-19T11:34:12;4.40;;;3.60;;
45392;SDS011;31129;44.810;10.334;2023-04-19T11:36:48;5.18;;;3.90;;
45392;SDS011;31129;44.810;10.334;2023-04-19T11:39:14;9.15;;;4.18;;
45392;SDS011;31129;44.810;10.334;2023-04-19T11:41:40;8.50;;;4.15;;
45392;SDS011;31129;44.810;10.334;2023-04-19T11:44:16;7.05;;;4.10;;
45392;SDS011;31129;44.810;10.334;2023-04-19T11:46:56;5.93;;;3.00;;
45392;SDS011;31129;44.810;10.334;2023-04-19T11:49:26;6.75;;;3.38;;
45392;SDS011;31129;44.810;10.334;2023-04-19T11:51:55;6.70;;;3.33;;
45392;SDS011;31129;44.810;10.334;2023-04-19T11:54:23;4.85;;;4.10;;
45392;SDS011;31129;44.810;10.334;2023-04-19T11:57:10;6.35;;;3.97;;
45392;SDS011;31129;44.810;10.334;2023-04-19T11:59:35;5.25;;;4.32;;
45392;SDS011;31129;44.810;10.334;2023-04-19T12:02:05;6.25;;;4.50;;
45392;SDS011;31129;44.810;10.334;2023-04-19T12:04:31;8.55;;;4.25;;
45392;SDS011;31129;44.810;10.334;2023-04-19T12:06:58;4.65;;;3.15;;
45392;SDS011;31129;44.810;10.334;2023-04-19T12:09:24;9.85;;;3.58;;
45392;SDS011;31129;44.810;10.334;2023-04-19T12:11:50;5.82;;;3.80;;
45392;SDS011;31129;44.810;10.334;2023-04-19T12:14:16;5.82;;;4.10;;
45392;SDS011;31129;44.810;10.334;2023-04-19T12:17:03;4.30;;;3.88;;
45392;SDS011;31129;44.810;10.334;2023-04-19T12:19:36;3.72;;;3.05;;
45392;SDS011;31129;44.810;10.334;2023-04-19T12:22:07;5.32;;;4.22;;
45392;SDS011;31129;44.810;10.334;2023-04-19T12:24:34;4.88;;;3.75;;
45392;SDS011;31129;44.810;10.334;2023-04-19T12:27:01;4.55;;;3.80;;
45392;SDS011;31129;44.810;10.334;2023-04-19T12:29:26;4.72;;;4.00;;
45392;SDS011;31129;44.810;10.334;2023-04-19T12:31:52;5.55;;;4.45;;
45392;SDS011;31129;44.810;10.334;2023-04-19T12:34:17;6.82;;;4.28;;
45392;SDS011;31129;44.810;10.334;2023-04-19T12:36:43;9.93;;;3.75;;
45392;SDS011;31129;44.810;10.334;2023-04-19T12:39:08;8.23;;;3.88;;
45392;SDS011;31129;44.810;10.334;2023-04-19T12:41:34;5.18;;;3.83;;
45392;SDS011;31129;44.810;10.334;2023-04-19T12:44:03;4.50;;;3.35;;
45392;SDS011;31129;44.810;10.334;2023-04-19T12:46:34;5.18;;;4.05;;
45392;SDS011;31129;44.810;10.334;2023-04-19T12:49:02;3.63;;;3.10;;
45392;SDS011;31129;44.810;10.334;2023-04-19T12:51:27;7.28;;;3.40;;
45392;SDS011;31129;44.810;10.334;2023-04-19T12:53:53;9.18;;;3.15;;
45392;SDS011;31129;44.810;10.334;2023-04-19T12:56:19;5.00;;;3.08;;
45392;SDS011;31129;44.810;10.334;2023-04-19T12:58:54;4.78;;;3.63;;
45392;SDS011;31129;44.810;10.334;2023-04-19T13:01:20;8.68;;;3.30;;
45392;SDS011;31129;44.810;10.334;2023-04-19T13:04:07;5.07;;;3.90;;
45392;SDS011;31129;44.810;10.334;2023-04-19T13:06:36;4.93;;;3.47;;
45392;SDS011;31129;44.810;10.334;2023-04-19T13:09:05;5.00;;;3.50;;
45392;SDS011;31129;44.810;10.334;2023-04-19T13:11:33;4.70;;;2.83;;
45392;SDS011;31129;44.810;10.334;2023-04-19T13:13:59;3.60;;;3.10;;
45392;SDS011;31129;44.810;10.334;2023-04-19T13:16:25;8.23;;;2.95;;
45392;SDS011;31129;44.810;10.334;2023-04-19T13:18:53;6.40;;;3.70;;
45392;SDS011;31129;44.810;10.334;2023-04-19T13:21:19;5.30;;;3.30;;
45392;SDS011;31129;44.810;10.334;2023-04-19T13:23:50;6.55;;;3.10;;
45392;SDS011;31129;44.810;10.334;2023-04-19T13:26:29;5.72;;;3.60;;
45392;SDS011;31129;44.810;10.334;2023-04-19T13:29:03;7.40;;;2.97;;
45392;SDS011;31129;44.810;10.334;2023-04-19T13:31:29;6.47;;;3.20;;
45392;SDS011;31129;44.810;10.334;2023-04-19T13:33:55;5.35;;;3.22;;
45392;SDS011;31129;44.810;10.334;2023-04-19T13:36:21;5.05;;;2.65;;
45392;SDS011;31129;44.810;10.334;2023-04-19T13:38:49;7.55;;;3.30;;
45392;SDS011;31129;44.810;10.334;2023-04-19T13:41:15;8.10;;;2.67;;
45392;SDS011;31129;44.810;10.334;2023-04-19T13:43:41;4.47;;;2.60;;
45392;SDS011;31129;44.810;10.334;2023-04-19T13:46:06;6.47;;;2.90;;
45392;SDS011;31129;44.810;10.334;2023-04-19T13:48:35;4.00;;;2.70;;
45392;SDS011;31129;44.810;10.334;2023-04-19T13:51:02;8.90;;;2.47;;
45392;SDS011;31129;44.810;10.334;2023-04-19T13:53:28;6.10;;;2.58;;
45392;SDS011;31129;44.810;10.334;2023-04-19T13:55:54;2.70;;;2.47;;
45392;SDS011;31129;44.810;10.334;2023-04-19T13:58:20;3.78;;;3.03;;
45392;SDS011;31129;44.810;10.334;2023-04-19T14:00:46;6.00;;;2.78;;
45392;SDS011;31129;44.810;10.334;2023-04-19T14:03:15;4.53;;;3.05;;
45392;SDS011;31129;44.810;10.334;2023-04-19T14:05:41;3.28;;;2.33;;
45392;SDS011;31129;44.810;10.334;2023-04-19T14:08:06;2.63;;;2.30;;
45392;SDS011;31129;44.810;10.334;2023-04-19T14:10:35;3.72;;;1.88;;
45392;SDS011;31129;44.810;10.334;2023-04-19T14:13:01;7.80;;;2.65;;
45392;SDS011;31129;44.810;10.334;2023-04-19T14:15:29;4.85;;;2.20;;
45392;SDS011;31129;44.810;10.334;2023-04-19T14:17:55;7.35;;;2.97;;
45392;SDS011;31129;44.810;10.334;2023-04-19T14:20:20;6.00;;;2.05;;
45392;SDS011;31129;44.810;10.334;2023-04-19T14:22:46;3.67;;;3.08;;
45392;SDS011;31129;44.810;10.334;2023-04-19T14:25:11;2.75;;;2.00;;
45392;SDS011;31129;44.810;10.334;2023-04-19T14:27:39;7.53;;;2.25;;
45392;SDS011;31129;44.810;10.334;2023-04-19T14:30:05;5.32;;;2.80;;
45392;SDS011;31129;44.810;10.334;2023-04-19T14:32:31;4.65;;;2.10;;
45392;SDS011;31129;44.810;10.334;2023-04-19T14:34:57;3.85;;;2.30;;
45392;SDS011;31129;44.810;10.334;2023-04-19T14:37:25;3.53;;;2.10;;
45392;SDS011;31129;44.810;10.334;2023-04-19T14:39:51;4.68;;;2.65;;
45392;SDS011;31129;44.810;10.334;2023-04-19T14:42:16;4.22;;;2.03;;
45392;SDS011;31129;44.810;10.334;2023-04-19T14:44:42;4.18;;;2.22;;
45392;SDS011;31129;44.810;10.334;2023-04-19T14:47:08;6.20;;;2.40;;
45392;SDS011;31129;44.810;10.334;2023-04-19T14:49:33;6.20;;;2.28;;